Terminal Aerodrome Forecast
Issued by NWS

Home | Current Version | Previous Version | Text Only | Print | Product List | Glossary On
Versions: 1 2 3 4 5 6 7 8 9 10 11 12 13
000
FTUS42 TJSJ 191700
TAFJMZ
TAF
TJMZ 191734Z 1918/2018 06003KT P6SM OVC090
     FM192230 07005KT P6SM FEW030 SCT060
     FM201530 08010KT P6SM VCSH SCT030=

USA.gov is the U.S. government's official web portal to all federal, state and local government web resources and services.